Meteo Giornale » Osservazioni meteo Stati Uniti (USA) » Butte Bert Mooney
ore: 10:53 - Osservazioni Meteo Butte Bert Mooney
Lat. 45° 57' N Lon. 112° 29' W Alt. 1690 metri s.l.m.
16 °C
Sereno
Temp. 24 Ore
1 °C
19 °C
Nord
0 Km/h
Dew point -2 °C
Umidità 29 %
Visibilità 10 Km
Il sole sorge alle ore 06:49
Il sole tramonta alle ore 20:10
| Data e Ora | Cielo e Fenomeni | T °C | DP °C | Um. % | Pres. hPa | Vis. km | Vento km/h | |
|---|---|---|---|---|---|---|---|---|
| Oggi h: 10:53 | Sereno | 16 | -2 | 29 | 1021 | 10 | N 0 | |
| Oggi h: 09:53 | Sereno | 11 | -2 | 40 | 1021 | 10 | N 0 | |
| Oggi h: 08:53 | Sereno | 6 | -2 | 56 | 1021 | 10 | N 0 | |
| Oggi h: 07:53 | Sereno | 1 | -2 | 80 | 1021 | 10 | N 0 | |
| Oggi h: 06:53 | Sereno | 1 | -3 | 74 | 1021 | 10 | N 0 | |
| Oggi h: 05:53 | Sereno | 2 | -2 | 74 | 1021 | 10 | N 0 | |
| Oggi h: 04:53 | Sereno | 2 | -2 | 74 | 1020 | 10 | N 0 | |
| Oggi h: 03:53 | Sereno | 3 | -2 | 69 | 1020 | 10 | SE 9.3 | |
| Oggi h: 02:53 | Sereno | 3 | -2 | 69 | 1020 | 10 | SE 7.4 | |
| Oggi h: 01:53 | Sereno | 6 | -2 | 56 | 1020 | 10 | S/SE 7.4 | |
| Oggi h: 00:53 | Sereno | 8 | -3 | 45 | 1020 | 10 | S/SE 13 | |
| Ieri h: 23:53 | Sereno | 9 | -3 | 42 | 1020 | 10 | NO 9.3 | |
| Ieri h: 22:53 | Sereno | 9 | -2 | 45 | 1019 | 10 | NO 9.3 | |
| Ieri h: 21:53 | Sereno | 13 | -4 | 30 | 1019 | 10 | N 5.5 | |
| Ieri h: 20:53 | Sereno | 14 | -4 | 28 | 1018 | 10 | N 0 | |
| Ieri h: 19:53 | Sereno | 17 | -4 | 23 | 1017 | 10 | NO 18.5 | |
| Ieri h: 18:53 | Sereno | 18 | -5 | 20 | 1017 | 10 | NO 24 | |
| Ieri h: 17:53 | Sereno | 19 | -5 | 19 | 1017 | 10 | NO 18.5 | |
| Ieri h: 16:53 | Sereno | 19 | -6 | 17 | 1017 | 10 | O/NO 22.2 | |
| Ieri h: 15:53 | Sereno | 18 | -7 | 17 | 1017 | 10 | O 27.8 | |
| Ieri h: 14:53 | Sereno | 18 | -7 | 17 | 1017 | 10 | O 18.5 | |
| Ieri h: 13:53 | Sereno | 17 | -6 | 20 | 1017 | 10 | NO 24 | |
| Ieri h: 12:53 | Nuvoloso | 16 | -4 | 24 | 1018 | 10 | N 7.4 | |
| Ieri h: 11:53 | Sereno | 14 | -1 | 35 | 1018 | 10 | O/NO 11.1 | |



